sensor_id;sensor_type;location;lat;lon;timestamp;P1;durP1;ratioP1;P2;durP2;ratioP2
47922;SDS011;33688;44.354;9.228;2022-08-06T00:02:19;0.80;;;0.80;;
47922;SDS011;33688;44.354;9.228;2022-08-06T00:04:49;1.17;;;0.93;;
47922;SDS011;33688;44.354;9.228;2022-08-06T00:07:15;0.75;;;0.75;;
47922;SDS011;33688;44.354;9.228;2022-08-06T00:09:44;0.57;;;0.57;;
47922;SDS011;33688;44.354;9.228;2022-08-06T00:12:10;0.52;;;0.52;;
47922;SDS011;33688;44.354;9.228;2022-08-06T00:14:39;0.70;;;0.70;;
47922;SDS011;33688;44.354;9.228;2022-08-06T00:17:04;0.47;;;0.47;;
47922;SDS011;33688;44.354;9.228;2022-08-06T00:19:33;0.90;;;0.68;;
47922;SDS011;33688;44.354;9.228;2022-08-06T00:21:59;0.60;;;0.60;;
47922;SDS011;33688;44.354;9.228;2022-08-06T00:24:27;0.60;;;0.60;;
47922;SDS011;33688;44.354;9.228;2022-08-06T00:26:53;0.52;;;0.52;;
47922;SDS011;33688;44.354;9.228;2022-08-06T00:29:22;0.57;;;0.55;;
47922;SDS011;33688;44.354;9.228;2022-08-06T00:31:47;0.60;;;0.60;;
47922;SDS011;33688;44.354;9.228;2022-08-06T00:34:16;0.50;;;0.50;;
47922;SDS011;33688;44.354;9.228;2022-08-06T00:36:41;1.80;;;0.70;;
47922;SDS011;33688;44.354;9.228;2022-08-06T00:39:07;1.05;;;0.95;;
47922;SDS011;33688;44.354;9.228;2022-08-06T00:41:33;0.80;;;0.80;;
47922;SDS011;33688;44.354;9.228;2022-08-06T00:43:59;0.60;;;0.60;;
47922;SDS011;33688;44.354;9.228;2022-08-06T00:46:25;0.75;;;0.75;;
47922;SDS011;33688;44.354;9.228;2022-08-06T00:48:53;1.85;;;0.80;;
47922;SDS011;33688;44.354;9.228;2022-08-06T00:51:19;0.52;;;0.52;;
47922;SDS011;33688;44.354;9.228;2022-08-06T00:53:49;0.60;;;0.60;;
47922;SDS011;33688;44.354;9.228;2022-08-06T00:56:16;0.70;;;0.70;;
47922;SDS011;33688;44.354;9.228;2022-08-06T00:58:44;0.60;;;0.60;;
47922;SDS011;33688;44.354;9.228;2022-08-06T01:01:10;0.57;;;0.57;;
47922;SDS011;33688;44.354;9.228;2022-08-06T01:03:36;0.63;;;0.63;;
47922;SDS011;33688;44.354;9.228;2022-08-06T01:06:02;0.73;;;0.70;;
47922;SDS011;33688;44.354;9.228;2022-08-06T01:08:31;0.47;;;0.47;;
47922;SDS011;33688;44.354;9.228;2022-08-06T01:10:56;0.70;;;0.70;;
47922;SDS011;33688;44.354;9.228;2022-08-06T01:13:25;0.60;;;0.60;;
47922;SDS011;33688;44.354;9.228;2022-08-06T01:16:15;0.70;;;0.70;;
47922;SDS011;33688;44.354;9.228;2022-08-06T01:18:41;0.85;;;0.68;;
47922;SDS011;33688;44.354;9.228;2022-08-06T01:29:46;0.80;;;0.60;;
47922;SDS011;33688;44.354;9.228;2022-08-06T01:32:19;0.63;;;0.63;;
47922;SDS011;33688;44.354;9.228;2022-08-06T01:34:51;0.50;;;0.50;;
47922;SDS011;33688;44.354;9.228;2022-08-06T01:37:23;0.70;;;0.70;;
47922;SDS011;33688;44.354;9.228;2022-08-06T01:39:55;0.88;;;0.70;;
47922;SDS011;33688;44.354;9.228;2022-08-06T01:42:22;0.60;;;0.60;;
47922;SDS011;33688;44.354;9.228;2022-08-06T01:44:50;0.60;;;0.60;;
47922;SDS011;33688;44.354;9.228;2022-08-06T01:47:17;0.73;;;0.73;;
47922;SDS011;33688;44.354;9.228;2022-08-06T01:49:48;0.77;;;0.60;;
47922;SDS011;33688;44.354;9.228;2022-08-06T01:52:17;0.88;;;0.70;;
47922;SDS011;33688;44.354;9.228;2022-08-06T01:54:45;0.60;;;0.60;;
47922;SDS011;33688;44.354;9.228;2022-08-06T01:57:15;0.70;;;0.70;;
47922;SDS011;33688;44.354;9.228;2022-08-06T01:59:43;0.50;;;0.50;;
47922;SDS011;33688;44.354;9.228;2022-08-06T02:02:12;0.70;;;0.70;;
47922;SDS011;33688;44.354;9.228;2022-08-06T02:04:44;0.50;;;0.50;;
47922;SDS011;33688;44.354;9.228;2022-08-06T02:07:10;0.90;;;0.90;;
47922;SDS011;33688;44.354;9.228;2022-08-06T02:09:41;0.55;;;0.55;;
47922;SDS011;33688;44.354;9.228;2022-08-06T02:14:40;0.40;;;0.40;;
47922;SDS011;33688;44.354;9.228;2022-08-06T02:17:11;0.60;;;0.60;;
47922;SDS011;33688;44.354;9.228;2022-08-06T02:19:56;0.60;;;0.60;;
47922;SDS011;33688;44.354;9.228;2022-08-06T02:22:29;0.60;;;0.55;;
47922;SDS011;33688;44.354;9.228;2022-08-06T02:24:56;0.55;;;0.55;;
47922;SDS011;33688;44.354;9.228;2022-08-06T02:27:22;0.65;;;0.60;;
47922;SDS011;33688;44.354;9.228;2022-08-06T02:29:48;0.77;;;0.60;;
47922;SDS011;33688;44.354;9.228;2022-08-06T02:32:18;0.50;;;0.50;;
47922;SDS011;33688;44.354;9.228;2022-08-06T02:34:44;0.52;;;0.50;;
47922;SDS011;33688;44.354;9.228;2022-08-06T02:37:13;0.45;;;0.45;;
47922;SDS011;33688;44.354;9.228;2022-08-06T02:39:44;0.50;;;0.50;;
47922;SDS011;33688;44.354;9.228;2022-08-06T02:42:30;0.70;;;0.70;;
47922;SDS011;33688;44.354;9.228;2022-08-06T02:50:13;0.50;;;0.50;;
47922;SDS011;33688;44.354;9.228;2022-08-06T02:52:48;0.60;;;0.60;;
47922;SDS011;33688;44.354;9.228;2022-08-06T02:55:18;0.57;;;0.50;;
47922;SDS011;33688;44.354;9.228;2022-08-06T02:58:06;0.80;;;0.50;;
47922;SDS011;33688;44.354;9.228;2022-08-06T03:00:36;0.80;;;0.80;;
47922;SDS011;33688;44.354;9.228;2022-08-06T03:03:04;0.50;;;0.50;;
47922;SDS011;33688;44.354;9.228;2022-08-06T03:05:32;0.70;;;0.70;;
47922;SDS011;33688;44.354;9.228;2022-08-06T03:07:59;0.50;;;0.50;;
47922;SDS011;33688;44.354;9.228;2022-08-06T03:10:25;0.60;;;0.60;;
47922;SDS011;33688;44.354;9.228;2022-08-06T03:12:55;0.40;;;0.40;;
47922;SDS011;33688;44.354;9.228;2022-08-06T03:15:21;0.50;;;0.50;;
47922;SDS011;33688;44.354;9.228;2022-08-06T03:17:48;0.60;;;0.60;;
47922;SDS011;33688;44.354;9.228;2022-08-06T03:20:15;0.50;;;0.50;;
47922;SDS011;33688;44.354;9.228;2022-08-06T03:22:48;0.60;;;0.60;;
47922;SDS011;33688;44.354;9.228;2022-08-06T03:25:16;0.53;;;0.53;;
47922;SDS011;33688;44.354;9.228;2022-08-06T03:27:45;0.60;;;0.60;;
47922;SDS011;33688;44.354;9.228;2022-08-06T03:32:45;0.65;;;0.60;;
47922;SDS011;33688;44.354;9.228;2022-08-06T03:35:12;0.70;;;0.60;;
47922;SDS011;33688;44.354;9.228;2022-08-06T03:37:39;0.50;;;0.50;;
47922;SDS011;33688;44.354;9.228;2022-08-06T03:40:06;0.60;;;0.60;;
47922;SDS011;33688;44.354;9.228;2022-08-06T03:42:33;0.70;;;0.70;;
47922;SDS011;33688;44.354;9.228;2022-08-06T03:44:59;0.50;;;0.50;;
47922;SDS011;33688;44.354;9.228;2022-08-06T03:47:31;0.63;;;0.52;;
47922;SDS011;33688;44.354;9.228;2022-08-06T03:50:05;0.57;;;0.57;;
47922;SDS011;33688;44.354;9.228;2022-08-06T03:52:36;0.60;;;0.60;;
47922;SDS011;33688;44.354;9.228;2022-08-06T03:55:04;0.50;;;0.50;;
47922;SDS011;33688;44.354;9.228;2022-08-06T03:57:36;0.68;;;0.60;;
47922;SDS011;33688;44.354;9.228;2022-08-06T04:00:05;0.50;;;0.50;;
47922;SDS011;33688;44.354;9.228;2022-08-06T04:02:42;0.60;;;0.60;;
47922;SDS011;33688;44.354;9.228;2022-08-06T04:05:10;0.80;;;0.80;;
47922;SDS011;33688;44.354;9.228;2022-08-06T04:07:40;0.57;;;0.57;;
47922;SDS011;33688;44.354;9.228;2022-08-06T04:10:06;0.98;;;0.60;;
47922;SDS011;33688;44.354;9.228;2022-08-06T04:12:32;0.52;;;0.52;;
47922;SDS011;33688;44.354;9.228;2022-08-06T04:15:01;0.60;;;0.60;;
47922;SDS011;33688;44.354;9.228;2022-08-06T04:17:28;0.73;;;0.68;;
47922;SDS011;33688;44.354;9.228;2022-08-06T04:19:57;0.45;;;0.45;;
47922;SDS011;33688;44.354;9.228;2022-08-06T04:22:23;0.55;;;0.55;;
47922;SDS011;33688;44.354;9.228;2022-08-06T04:24:49;0.70;;;0.60;;
47922;SDS011;33688;44.354;9.228;2022-08-06T04:27:15;0.82;;;0.82;;
47922;SDS011;33688;44.354;9.228;2022-08-06T04:29:40;0.47;;;0.47;;
47922;SDS011;33688;44.354;9.228;2022-08-06T04:32:07;0.68;;;0.68;;
47922;SDS011;33688;44.354;9.228;2022-08-06T04:34:36;0.52;;;0.50;;
47922;SDS011;33688;44.354;9.228;2022-08-06T04:37:03;0.50;;;0.50;;
47922;SDS011;33688;44.354;9.228;2022-08-06T04:39:33;0.60;;;0.60;;
47922;SDS011;33688;44.354;9.228;2022-08-06T04:41:59;1.02;;;0.57;;
47922;SDS011;33688;44.354;9.228;2022-08-06T04:44:27;0.63;;;0.60;;
47922;SDS011;33688;44.354;9.228;2022-08-06T04:46:53;0.40;;;0.40;;
47922;SDS011;33688;44.354;9.228;2022-08-06T04:49:23;0.70;;;0.70;;
47922;SDS011;33688;44.354;9.228;2022-08-06T04:51:49;0.60;;;0.60;;
47922;SDS011;33688;44.354;9.228;2022-08-06T04:54:18;0.40;;;0.40;;
47922;SDS011;33688;44.354;9.228;2022-08-06T04:56:43;0.60;;;0.60;;
47922;SDS011;33688;44.354;9.228;2022-08-06T04:59:12;0.40;;;0.40;;
47922;SDS011;33688;44.354;9.228;2022-08-06T05:01:38;0.57;;;0.57;;
47922;SDS011;33688;44.354;9.228;2022-08-06T05:04:04;0.60;;;0.60;;
47922;SDS011;33688;44.354;9.228;2022-08-06T05:06:35;0.40;;;0.40;;
47922;SDS011;33688;44.354;9.228;2022-08-06T05:09:08;0.50;;;0.50;;
47922;SDS011;33688;44.354;9.228;2022-08-06T05:11:38;0.67;;;0.67;;
47922;SDS011;33688;44.354;9.228;2022-08-06T05:14:13;0.65;;;0.65;;
47922;SDS011;33688;44.354;9.228;2022-08-06T05:16:44;0.60;;;0.60;;
47922;SDS011;33688;44.354;9.228;2022-08-06T05:19:21;0.50;;;0.50;;
47922;SDS011;33688;44.354;9.228;2022-08-06T05:21:51;0.60;;;0.60;;
47922;SDS011;33688;44.354;9.228;2022-08-06T05:24:18;0.50;;;0.50;;
47922;SDS011;33688;44.354;9.228;2022-08-06T05:26:47;1.00;;;0.90;;
47922;SDS011;33688;44.354;9.228;2022-08-06T05:29:17;2.55;;;0.40;;
47922;SDS011;33688;44.354;9.228;2022-08-06T05:31:46;0.50;;;0.50;;
47922;SDS011;33688;44.354;9.228;2022-08-06T05:34:12;0.73;;;0.73;;
47922;SDS011;33688;44.354;9.228;2022-08-06T05:36:38;0.40;;;0.40;;
47922;SDS011;33688;44.354;9.228;2022-08-06T05:39:04;0.60;;;0.60;;
47922;SDS011;33688;44.354;9.228;2022-08-06T05:41:33;0.60;;;0.60;;
47922;SDS011;33688;44.354;9.228;2022-08-06T05:44:02;0.50;;;0.50;;
47922;SDS011;33688;44.354;9.228;2022-08-06T05:46:34;0.60;;;0.60;;
47922;SDS011;33688;44.354;9.228;2022-08-06T05:49:17;0.52;;;0.52;;
47922;SDS011;33688;44.354;9.228;2022-08-06T05:52:28;0.47;;;0.47;;
47922;SDS011;33688;44.354;9.228;2022-08-06T05:55:00;0.60;;;0.43;;
47922;SDS011;33688;44.354;9.228;2022-08-06T05:57:30;0.40;;;0.40;;
47922;SDS011;33688;44.354;9.228;2022-08-06T06:00:09;0.60;;;0.60;;
47922;SDS011;33688;44.354;9.228;2022-08-06T06:02:43;0.60;;;0.60;;
47922;SDS011;33688;44.354;9.228;2022-08-06T06:05:09;0.80;;;0.55;;
47922;SDS011;33688;44.354;9.228;2022-08-06T06:07:36;0.90;;;0.90;;
47922;SDS011;33688;44.354;9.228;2022-08-06T06:10:03;1.00;;;0.65;;
47922;SDS011;33688;44.354;9.228;2022-08-06T06:12:33;0.35;;;0.35;;
47922;SDS011;33688;44.354;9.228;2022-08-06T06:15:00;0.40;;;0.40;;
47922;SDS011;33688;44.354;9.228;2022-08-06T06:17:33;0.40;;;0.40;;
47922;SDS011;33688;44.354;9.228;2022-08-06T06:20:20;0.52;;;0.52;;
47922;SDS011;33688;44.354;9.228;2022-08-06T06:28:00;0.60;;;0.60;;
47922;SDS011;33688;44.354;9.228;2022-08-06T06:30:40;0.50;;;0.50;;
47922;SDS011;33688;44.354;9.228;2022-08-06T06:35:57;0.57;;;0.57;;
47922;SDS011;33688;44.354;9.228;2022-08-06T06:41:23;0.60;;;0.60;;
47922;SDS011;33688;44.354;9.228;2022-08-06T06:47:16;0.57;;;0.50;;
47922;SDS011;33688;44.354;9.228;2022-08-06T06:49:58;0.35;;;0.35;;
47922;SDS011;33688;44.354;9.228;2022-08-06T06:52:36;0.50;;;0.50;;
47922;SDS011;33688;44.354;9.228;2022-08-06T06:55:08;0.40;;;0.40;;
47922;SDS011;33688;44.354;9.228;2022-08-06T06:57:36;0.40;;;0.40;;
47922;SDS011;33688;44.354;9.228;2022-08-06T07:00:06;0.50;;;0.50;;
47922;SDS011;33688;44.354;9.228;2022-08-06T07:02:33;0.50;;;0.50;;
47922;SDS011;33688;44.354;9.228;2022-08-06T07:05:04;0.50;;;0.50;;
47922;SDS011;33688;44.354;9.228;2022-08-06T07:07:31;1.42;;;0.50;;
47922;SDS011;33688;44.354;9.228;2022-08-06T07:10:01;0.30;;;0.30;;
47922;SDS011;33688;44.354;9.228;2022-08-06T07:12:28;0.60;;;0.60;;
47922;SDS011;33688;44.354;9.228;2022-08-06T07:14:59;0.65;;;0.57;;
47922;SDS011;33688;44.354;9.228;2022-08-06T07:17:27;0.40;;;0.40;;
47922;SDS011;33688;44.354;9.228;2022-08-06T07:19:55;0.60;;;0.60;;
47922;SDS011;33688;44.354;9.228;2022-08-06T07:22:22;0.47;;;0.47;;
47922;SDS011;33688;44.354;9.228;2022-08-06T07:24:53;0.52;;;0.52;;
47922;SDS011;33688;44.354;9.228;2022-08-06T07:27:21;0.50;;;0.50;;
47922;SDS011;33688;44.354;9.228;2022-08-06T07:29:50;0.52;;;0.52;;
47922;SDS011;33688;44.354;9.228;2022-08-06T07:32:15;1.00;;;0.90;;
47922;SDS011;33688;44.354;9.228;2022-08-06T07:34:44;1.08;;;0.63;;
47922;SDS011;33688;44.354;9.228;2022-08-06T07:37:10;1.27;;;0.88;;
47922;SDS011;33688;44.354;9.228;2022-08-06T07:39:37;0.80;;;0.80;;
47922;SDS011;33688;44.354;9.228;2022-08-06T07:42:11;0.60;;;0.60;;
47922;SDS011;33688;44.354;9.228;2022-08-06T07:44:39;0.40;;;0.40;;
47922;SDS011;33688;44.354;9.228;2022-08-06T07:47:08;2.15;;;0.70;;
47922;SDS011;33688;44.354;9.228;2022-08-06T07:49:39;0.77;;;0.77;;
47922;SDS011;33688;44.354;9.228;2022-08-06T07:52:06;0.90;;;0.60;;
47922;SDS011;33688;44.354;9.228;2022-08-06T07:54:36;0.73;;;0.65;;
47922;SDS011;33688;44.354;9.228;2022-08-06T07:57:02;0.52;;;0.52;;
47922;SDS011;33688;44.354;9.228;2022-08-06T07:59:28;0.80;;;0.80;;
47922;SDS011;33688;44.354;9.228;2022-08-06T08:01:53;0.80;;;0.70;;
47922;SDS011;33688;44.354;9.228;2022-08-06T08:04:19;0.60;;;0.57;;
47922;SDS011;33688;44.354;9.228;2022-08-06T08:07:04;0.80;;;0.80;;
47922;SDS011;33688;44.354;9.228;2022-08-06T08:09:30;0.52;;;0.52;;
47922;SDS011;33688;44.354;9.228;2022-08-06T08:11:56;0.65;;;0.60;;
47922;SDS011;33688;44.354;9.228;2022-08-06T08:14:25;0.65;;;0.65;;
47922;SDS011;33688;44.354;9.228;2022-08-06T08:16:52;0.68;;;0.68;;
47922;SDS011;33688;44.354;9.228;2022-08-06T08:19:28;0.85;;;0.82;;
47922;SDS011;33688;44.354;9.228;2022-08-06T08:22:00;1.05;;;0.65;;
47922;SDS011;33688;44.354;9.228;2022-08-06T08:24:27;0.77;;;0.63;;
47922;SDS011;33688;44.354;9.228;2022-08-06T08:26:54;1.17;;;0.93;;
47922;SDS011;33688;44.354;9.228;2022-08-06T08:29:23;1.45;;;0.70;;
47922;SDS011;33688;44.354;9.228;2022-08-06T08:31:48;1.52;;;1.20;;
47922;SDS011;33688;44.354;9.228;2022-08-06T08:34:14;0.70;;;0.70;;
47922;SDS011;33688;44.354;9.228;2022-08-06T08:36:40;0.60;;;0.60;;
47922;SDS011;33688;44.354;9.228;2022-08-06T08:39:08;0.90;;;0.90;;
47922;SDS011;33688;44.354;9.228;2022-08-06T08:41:36;1.63;;;0.80;;
47922;SDS011;33688;44.354;9.228;2022-08-06T08:44:07;0.70;;;0.70;;
47922;SDS011;33688;44.354;9.228;2022-08-06T08:46:34;0.77;;;0.77;;
47922;SDS011;33688;44.354;9.228;2022-08-06T08:49:06;1.10;;;1.00;;
47922;SDS011;33688;44.354;9.228;2022-08-06T08:51:34;0.60;;;0.60;;
47922;SDS011;33688;44.354;9.228;2022-08-06T08:54:02;0.60;;;0.60;;
47922;SDS011;33688;44.354;9.228;2022-08-06T08:56:31;1.13;;;0.70;;
47922;SDS011;33688;44.354;9.228;2022-08-06T08:59:01;0.98;;;0.90;;
47922;SDS011;33688;44.354;9.228;2022-08-06T09:01:27;1.02;;;0.93;;
47922;SDS011;33688;44.354;9.228;2022-08-06T09:03:53;1.08;;;0.98;;
47922;SDS011;33688;44.354;9.228;2022-08-06T09:06:20;1.33;;;1.00;;
47922;SDS011;33688;44.354;9.228;2022-08-06T09:08:49;1.02;;;1.00;;
47922;SDS011;33688;44.354;9.228;2022-08-06T09:11:15;0.88;;;0.73;;
47922;SDS011;33688;44.354;9.228;2022-08-06T09:13:44;1.83;;;1.48;;
47922;SDS011;33688;44.354;9.228;2022-08-06T09:16:10;1.20;;;1.08;;
47922;SDS011;33688;44.354;9.228;2022-08-06T09:18:36;1.63;;;1.20;;
47922;SDS011;33688;44.354;9.228;2022-08-06T09:21:01;1.05;;;0.95;;
47922;SDS011;33688;44.354;9.228;2022-08-06T09:23:31;1.05;;;0.95;;
47922;SDS011;33688;44.354;9.228;2022-08-06T09:25:57;1.05;;;1.00;;
47922;SDS011;33688;44.354;9.228;2022-08-06T09:31:21;1.63;;;0.98;;
47922;SDS011;33688;44.354;9.228;2022-08-06T09:33:54;1.00;;;1.00;;
47922;SDS011;33688;44.354;9.228;2022-08-06T09:36:21;1.17;;;1.02;;
47922;SDS011;33688;44.354;9.228;2022-08-06T09:38:51;0.88;;;0.88;;
47922;SDS011;33688;44.354;9.228;2022-08-06T09:41:19;1.50;;;1.00;;
47922;SDS011;33688;44.354;9.228;2022-08-06T09:43:50;1.83;;;1.15;;
47922;SDS011;33688;44.354;9.228;2022-08-06T09:46:17;1.63;;;1.30;;
47922;SDS011;33688;44.354;9.228;2022-08-06T09:48:57;2.60;;;1.00;;
47922;SDS011;33688;44.354;9.228;2022-08-06T09:51:23;1.50;;;1.05;;
47922;SDS011;33688;44.354;9.228;2022-08-06T09:53:56;2.25;;;1.40;;
47922;SDS011;33688;44.354;9.228;2022-08-06T09:56:23;1.45;;;1.20;;
47922;SDS011;33688;44.354;9.228;2022-08-06T09:58:49;1.50;;;1.15;;
47922;SDS011;33688;44.354;9.228;2022-08-06T10:01:17;2.03;;;1.20;;
47922;SDS011;33688;44.354;9.228;2022-08-06T10:03:51;1.38;;;1.27;;
47922;SDS011;33688;44.354;9.228;2022-08-06T10:06:18;1.52;;;1.02;;
47922;SDS011;33688;44.354;9.228;2022-08-06T10:08:46;1.00;;;0.90;;
47922;SDS011;33688;44.354;9.228;2022-08-06T10:11:13;2.33;;;1.25;;
47922;SDS011;33688;44.354;9.228;2022-08-06T10:13:57;1.85;;;1.70;;
47922;SDS011;33688;44.354;9.228;2022-08-06T10:16:22;1.65;;;1.30;;
47922;SDS011;33688;44.354;9.228;2022-08-06T10:18:55;2.40;;;1.35;;
47922;SDS011;33688;44.354;9.228;2022-08-06T10:21:24;0.95;;;0.85;;
47922;SDS011;33688;44.354;9.228;2022-08-06T10:23:58;0.90;;;0.90;;
47922;SDS011;33688;44.354;9.228;2022-08-06T10:26:27;1.33;;;1.20;;
47922;SDS011;33688;44.354;9.228;2022-08-06T10:28:54;1.35;;;1.17;;
47922;SDS011;33688;44.354;9.228;2022-08-06T10:31:21;1.15;;;1.00;;
47922;SDS011;33688;44.354;9.228;2022-08-06T10:36:18;1.35;;;1.25;;
47922;SDS011;33688;44.354;9.228;2022-08-06T10:38:49;1.33;;;1.23;;
47922;SDS011;33688;44.354;9.228;2022-08-06T10:41:17;1.48;;;1.25;;
47922;SDS011;33688;44.354;9.228;2022-08-06T10:43:46;1.38;;;1.27;;
47922;SDS011;33688;44.354;9.228;2022-08-06T10:46:12;1.25;;;1.15;;
47922;SDS011;33688;44.354;9.228;2022-08-06T10:48:44;1.42;;;1.10;;
47922;SDS011;33688;44.354;9.228;2022-08-06T10:51:11;1.85;;;1.30;;
47922;SDS011;33688;44.354;9.228;2022-08-06T10:53:42;1.20;;;1.10;;
47922;SDS011;33688;44.354;9.228;2022-08-06T10:56:09;1.92;;;1.50;;
47922;SDS011;33688;44.354;9.228;2022-08-06T10:58:39;1.30;;;0.98;;
47922;SDS011;33688;44.354;9.228;2022-08-06T11:01:07;2.70;;;1.33;;
47922;SDS011;33688;44.354;9.228;2022-08-06T11:12:17;1.38;;;1.30;;
47922;SDS011;33688;44.354;9.228;2022-08-06T11:14:27;1.52;;;1.42;;
47922;SDS011;33688;44.354;9.228;2022-08-06T11:16:54;1.38;;;1.20;;
47922;SDS011;33688;44.354;9.228;2022-08-06T11:19:40;1.27;;;1.17;;
47922;SDS011;33688;44.354;9.228;2022-08-06T11:22:06;1.10;;;1.08;;
47922;SDS011;33688;44.354;9.228;2022-08-06T11:24:32;1.33;;;1.15;;
47922;SDS011;33688;44.354;9.228;2022-08-06T11:26:58;1.50;;;0.80;;
47922;SDS011;33688;44.354;9.228;2022-08-06T11:29:26;2.00;;;1.48;;
47922;SDS011;33688;44.354;9.228;2022-08-06T11:31:52;1.77;;;1.10;;
47922;SDS011;33688;44.354;9.228;2022-08-06T11:34:20;1.20;;;1.10;;
47922;SDS011;33688;44.354;9.228;2022-08-06T11:36:47;1.38;;;1.25;;
47922;SDS011;33688;44.354;9.228;2022-08-06T11:39:18;1.17;;;1.02;;
47922;SDS011;33688;44.354;9.228;2022-08-06T11:44:22;1.50;;;1.00;;
47922;SDS011;33688;44.354;9.228;2022-08-06T11:46:50;1.83;;;1.17;;
47922;SDS011;33688;44.354;9.228;2022-08-06T11:49:35;1.00;;;1.00;;
47922;SDS011;33688;44.354;9.228;2022-08-06T11:52:04;1.02;;;1.02;;
47922;SDS011;33688;44.354;9.228;2022-08-06T11:54:31;1.75;;;1.40;;
47922;SDS011;33688;44.354;9.228;2022-08-06T11:59:31;1.40;;;1.30;;
47922;SDS011;33688;44.354;9.228;2022-08-06T12:01:58;1.33;;;1.13;;
47922;SDS011;33688;44.354;9.228;2022-08-06T12:12:30;1.38;;;1.27;;
47922;SDS011;33688;44.354;9.228;2022-08-06T12:17:26;1.30;;;1.20;;
47922;SDS011;33688;44.354;9.228;2022-08-06T12:19:59;1.40;;;1.30;;
47922;SDS011;33688;44.354;9.228;2022-08-06T12:22:26;1.42;;;1.17;;
47922;SDS011;33688;44.354;9.228;2022-08-06T12:24:52;2.88;;;1.83;;
47922;SDS011;33688;44.354;9.228;2022-08-06T12:27:20;1.42;;;1.30;;
47922;SDS011;33688;44.354;9.228;2022-08-06T12:29:47;1.85;;;1.60;;
47922;SDS011;33688;44.354;9.228;2022-08-06T12:34:48;1.30;;;1.20;;
47922;SDS011;33688;44.354;9.228;2022-08-06T12:37:14;1.17;;;1.08;;
47922;SDS011;33688;44.354;9.228;2022-08-06T12:39:41;1.55;;;1.23;;
47922;SDS011;33688;44.354;9.228;2022-08-06T12:42:26;1.25;;;1.15;;
47922;SDS011;33688;44.354;9.228;2022-08-06T12:44:52;1.52;;;1.20;;
47922;SDS011;33688;44.354;9.228;2022-08-06T12:47:19;2.55;;;1.50;;
47922;SDS011;33688;44.354;9.228;2022-08-06T12:49:48;3.53;;;2.10;;
47922;SDS011;33688;44.354;9.228;2022-08-06T12:52:15;1.88;;;1.65;;
47922;SDS011;33688;44.354;9.228;2022-08-06T12:54:46;1.35;;;1.25;;
47922;SDS011;33688;44.354;9.228;2022-08-06T12:57:19;2.30;;;1.63;;
47922;SDS011;33688;44.354;9.228;2022-08-06T12:59:48;2.75;;;1.40;;
47922;SDS011;33688;44.354;9.228;2022-08-06T13:02:15;2.33;;;1.55;;
47922;SDS011;33688;44.354;9.228;2022-08-06T13:04:47;1.70;;;1.60;;
47922;SDS011;33688;44.354;9.228;2022-08-06T13:07:17;2.53;;;1.90;;
47922;SDS011;33688;44.354;9.228;2022-08-06T13:09:44;1.92;;;1.55;;
47922;SDS011;33688;44.354;9.228;2022-08-06T13:12:19;1.77;;;1.67;;
47922;SDS011;33688;44.354;9.228;2022-08-06T13:14:50;1.65;;;1.50;;
47922;SDS011;33688;44.354;9.228;2022-08-06T13:17:21;2.60;;;1.73;;
47922;SDS011;33688;44.354;9.228;2022-08-06T13:19:56;2.50;;;1.73;;
47922;SDS011;33688;44.354;9.228;2022-08-06T13:22:25;2.92;;;1.50;;
47922;SDS011;33688;44.354;9.228;2022-08-06T13:25:08;2.35;;;1.63;;
47922;SDS011;33688;44.354;9.228;2022-08-06T13:27:37;2.53;;;2.05;;
47922;SDS011;33688;44.354;9.228;2022-08-06T13:30:04;3.55;;;1.75;;
47922;SDS011;33688;44.354;9.228;2022-08-06T13:32:31;1.52;;;1.42;;
47922;SDS011;33688;44.354;9.228;2022-08-06T13:35:01;2.47;;;1.80;;
47922;SDS011;33688;44.354;9.228;2022-08-06T13:37:48;3.13;;;2.10;;
47922;SDS011;33688;44.354;9.228;2022-08-06T13:40:16;1.95;;;1.40;;
47922;SDS011;33688;44.354;9.228;2022-08-06T13:42:49;1.77;;;1.60;;
47922;SDS011;33688;44.354;9.228;2022-08-06T13:45:21;2.55;;;1.80;;
47922;SDS011;33688;44.354;9.228;2022-08-06T13:47:47;1.75;;;1.40;;
47922;SDS011;33688;44.354;9.228;2022-08-06T13:50:20;2.75;;;1.77;;
47922;SDS011;33688;44.354;9.228;2022-08-06T13:52:46;2.92;;;1.80;;
47922;SDS011;33688;44.354;9.228;2022-08-06T13:55:21;1.73;;;1.63;;
47922;SDS011;33688;44.354;9.228;2022-08-06T13:57:49;1.70;;;1.60;;
47922;SDS011;33688;44.354;9.228;2022-08-06T14:00:15;5.80;;;1.75;;
47922;SDS011;33688;44.354;9.228;2022-08-06T14:02:40;2.47;;;1.60;;
47922;SDS011;33688;44.354;9.228;2022-08-06T14:05:09;2.17;;;1.60;;
47922;SDS011;33688;44.354;9.228;2022-08-06T14:07:35;2.15;;;1.60;;
47922;SDS011;33688;44.354;9.228;2022-08-06T14:10:04;2.00;;;1.30;;
47922;SDS011;33688;44.354;9.228;2022-08-06T14:12:30;1.52;;;1.40;;
47922;SDS011;33688;44.354;9.228;2022-08-06T14:14:59;3.58;;;2.35;;
47922;SDS011;33688;44.354;9.228;2022-08-06T14:17:25;2.67;;;2.45;;
47922;SDS011;33688;44.354;9.228;2022-08-06T14:19:51;2.17;;;1.75;;
47922;SDS011;33688;44.354;9.228;2022-08-06T14:22:16;1.83;;;1.73;;
47922;SDS011;33688;44.354;9.228;2022-08-06T14:24:45;2.08;;;1.70;;
47922;SDS011;33688;44.354;9.228;2022-08-06T14:27:11;2.40;;;1.60;;
47922;SDS011;33688;44.354;9.228;2022-08-06T14:29:40;1.70;;;1.60;;
47922;SDS011;33688;44.354;9.228;2022-08-06T14:32:05;1.75;;;1.40;;
47922;SDS011;33688;44.354;9.228;2022-08-06T14:34:32;2.17;;;1.80;;
47922;SDS011;33688;44.354;9.228;2022-08-06T14:36:59;1.58;;;1.48;;
47922;SDS011;33688;44.354;9.228;2022-08-06T14:39:28;1.92;;;1.70;;
47922;SDS011;33688;44.354;9.228;2022-08-06T14:41:54;1.60;;;1.50;;
47922;SDS011;33688;44.354;9.228;2022-08-06T14:44:38;1.77;;;1.67;;
47922;SDS011;33688;44.354;9.228;2022-08-06T14:47:22;1.52;;;1.40;;
47922;SDS011;33688;44.354;9.228;2022-08-06T14:49:49;1.60;;;1.50;;
47922;SDS011;33688;44.354;9.228;2022-08-06T14:52:15;2.25;;;1.73;;
47922;SDS011;33688;44.354;9.228;2022-08-06T14:54:44;1.83;;;1.65;;
47922;SDS011;33688;44.354;9.228;2022-08-06T14:57:10;2.80;;;1.73;;
47922;SDS011;33688;44.354;9.228;2022-08-06T14:59:38;2.00;;;1.80;;
47922;SDS011;33688;44.354;9.228;2022-08-06T15:02:04;2.72;;;1.67;;
47922;SDS011;33688;44.354;9.228;2022-08-06T15:04:32;1.55;;;1.45;;
47922;SDS011;33688;44.354;9.228;2022-08-06T15:06:58;1.80;;;1.70;;
47922;SDS011;33688;44.354;9.228;2022-08-06T15:09:24;2.65;;;1.77;;
47922;SDS011;33688;44.354;9.228;2022-08-06T15:11:50;4.68;;;2.10;;
47922;SDS011;33688;44.354;9.228;2022-08-06T15:14:19;1.92;;;1.60;;
47922;SDS011;33688;44.354;9.228;2022-08-06T15:16:44;2.45;;;1.60;;
47922;SDS011;33688;44.354;9.228;2022-08-06T15:19:13;4.90;;;1.35;;
47922;SDS011;33688;44.354;9.228;2022-08-06T15:21:38;1.92;;;1.52;;
47922;SDS011;33688;44.354;9.228;2022-08-06T15:24:07;2.33;;;1.67;;
47922;SDS011;33688;44.354;9.228;2022-08-06T15:26:33;2.13;;;1.80;;
47922;SDS011;33688;44.354;9.228;2022-08-06T15:29:01;1.70;;;1.60;;
47922;SDS011;33688;44.354;9.228;2022-08-06T15:31:27;1.83;;;1.60;;
47922;SDS011;33688;44.354;9.228;2022-08-06T15:33:52;2.25;;;1.58;;
47922;SDS011;33688;44.354;9.228;2022-08-06T15:36:18;1.88;;;1.77;;
47922;SDS011;33688;44.354;9.228;2022-08-06T15:38:45;1.48;;;1.38;;
47922;SDS011;33688;44.354;9.228;2022-08-06T15:41:10;4.60;;;1.70;;
47922;SDS011;33688;44.354;9.228;2022-08-06T15:43:39;2.72;;;1.95;;
47922;SDS011;33688;44.354;9.228;2022-08-06T15:46:05;1.75;;;1.45;;
47922;SDS011;33688;44.354;9.228;2022-08-06T15:48:31;2.55;;;1.80;;
47922;SDS011;33688;44.354;9.228;2022-08-06T15:50:57;2.28;;;1.20;;
47922;SDS011;33688;44.354;9.228;2022-08-06T15:53:27;1.90;;;1.80;;
47922;SDS011;33688;44.354;9.228;2022-08-06T15:55:53;1.65;;;1.50;;
47922;SDS011;33688;44.354;9.228;2022-08-06T15:58:21;1.27;;;1.17;;
47922;SDS011;33688;44.354;9.228;2022-08-06T16:00:47;1.60;;;1.50;;
47922;SDS011;33688;44.354;9.228;2022-08-06T16:03:13;1.60;;;1.50;;
47922;SDS011;33688;44.354;9.228;2022-08-06T16:05:40;1.40;;;1.30;;